Detroit, Michigan
Traffic Map
Current Weather Conditions
Detroit, Michigan
Overcast
Overcast

Feels Like: 3°
Wind Chill: Ceiling: 5100
Heat Index: Visibility: 15mi
Dew Point: Wind: 14mph
Humidity: 71% Direction: 40° (NE)
Pressure: 30.22in Gusts: 21mph
Raw Report DataCYQG 291600Z 04012G18KT 15SM OVC051 07/02 A3022 RMK SC8 SLP238
Traffic Incident Summary
Active as of:
Severity:
Category:
InformationThere was an issue retrieving the traffic information for this location. Please try a different location or try again shortly.
Advertisements
Track Severe Weather on mobile